sensor_id;sensor_type;location;lat;lon;timestamp;P1;durP1;ratioP1;P2;durP2;ratioP2
12601;SDS011;30282;16.436;99.370;2023-05-10T00:00:08;17.30;;;8.70;;
12601;SDS011;30282;16.436;99.370;2023-05-10T00:02:40;12.93;;;8.70;;
12601;SDS011;30282;16.436;99.370;2023-05-10T00:05:09;12.23;;;9.33;;
12601;SDS011;30282;16.436;99.370;2023-05-10T00:07:38;17.13;;;9.70;;
12601;SDS011;30282;16.436;99.370;2023-05-10T00:10:10;13.77;;;8.87;;
12601;SDS011;30282;16.436;99.370;2023-05-10T00:12:39;14.53;;;9.73;;
12601;SDS011;30282;16.436;99.370;2023-05-10T00:15:14;24.20;;;10.60;;
12601;SDS011;30282;16.436;99.370;2023-05-10T00:17:43;16.33;;;10.47;;
12601;SDS011;30282;16.436;99.370;2023-05-10T00:20:12;19.73;;;11.20;;
12601;SDS011;30282;16.436;99.370;2023-05-10T00:22:45;23.20;;;11.10;;
12601;SDS011;30282;16.436;99.370;2023-05-10T00:25:20;33.63;;;16.80;;
12601;SDS011;30282;16.436;99.370;2023-05-10T00:27:52;23.20;;;14.07;;
12601;SDS011;30282;16.436;99.370;2023-05-10T00:30:24;20.67;;;13.20;;
12601;SDS011;30282;16.436;99.370;2023-05-10T00:32:54;18.60;;;10.53;;
12601;SDS011;30282;16.436;99.370;2023-05-10T00:35:24;16.43;;;10.53;;
12601;SDS011;30282;16.436;99.370;2023-05-10T00:37:53;18.50;;;11.23;;
12601;SDS011;30282;16.436;99.370;2023-05-10T00:40:23;18.30;;;11.23;;
12601;SDS011;30282;16.436;99.370;2023-05-10T00:42:52;18.60;;;12.53;;
12601;SDS011;30282;16.436;99.370;2023-05-10T00:45:22;22.80;;;13.00;;
12601;SDS011;30282;16.436;99.370;2023-05-10T00:47:53;23.27;;;12.10;;
12601;SDS011;30282;16.436;99.370;2023-05-10T00:50:23;19.43;;;11.03;;
12601;SDS011;30282;16.436;99.370;2023-05-10T00:52:52;19.73;;;11.70;;
12601;SDS011;30282;16.436;99.370;2023-05-10T00:55:22;24.33;;;11.57;;
12601;SDS011;30282;16.436;99.370;2023-05-10T00:57:52;29.37;;;11.63;;
12601;SDS011;30282;16.436;99.370;2023-05-10T01:00:21;17.07;;;11.53;;
12601;SDS011;30282;16.436;99.370;2023-05-10T01:02:53;20.30;;;12.20;;
12601;SDS011;30282;16.436;99.370;2023-05-10T01:05:23;16.83;;;11.87;;
12601;SDS011;30282;16.436;99.370;2023-05-10T01:07:53;22.90;;;10.23;;
12601;SDS011;30282;16.436;99.370;2023-05-10T01:10:22;18.67;;;11.07;;
12601;SDS011;30282;16.436;99.370;2023-05-10T01:12:51;15.33;;;9.10;;
12601;SDS011;30282;16.436;99.370;2023-05-10T01:15:21;16.27;;;8.50;;
12601;SDS011;30282;16.436;99.370;2023-05-10T01:17:53;14.07;;;8.40;;
12601;SDS011;30282;16.436;99.370;2023-05-10T01:20:23;19.27;;;8.07;;
12601;SDS011;30282;16.436;99.370;2023-05-10T01:23:08;12.30;;;8.03;;
12601;SDS011;30282;16.436;99.370;2023-05-10T01:29:07;16.03;;;7.20;;
12601;SDS011;30282;16.436;99.370;2023-05-10T01:32:07;10.90;;;7.40;;
12601;SDS011;30282;16.436;99.370;2023-05-10T01:34:53;10.63;;;7.30;;
12601;SDS011;30282;16.436;99.370;2023-05-10T01:37:30;12.60;;;8.00;;
12601;SDS011;30282;16.436;99.370;2023-05-10T01:40:08;11.43;;;8.10;;
12601;SDS011;30282;16.436;99.370;2023-05-10T01:42:45;14.00;;;7.93;;
12601;SDS011;30282;16.436;99.370;2023-05-10T01:45:19;14.33;;;8.10;;
12601;SDS011;30282;16.436;99.370;2023-05-10T01:48:01;14.03;;;7.77;;
12601;SDS011;30282;16.436;99.370;2023-05-10T01:50:37;16.83;;;8.60;;
12601;SDS011;30282;16.436;99.370;2023-05-10T01:53:10;11.13;;;7.53;;
12601;SDS011;30282;16.436;99.370;2023-05-10T01:55:46;14.53;;;7.53;;
12601;SDS011;30282;16.436;99.370;2023-05-10T01:58:19;17.00;;;8.13;;
12601;SDS011;30282;16.436;99.370;2023-05-10T02:00:51;15.73;;;7.87;;
12601;SDS011;30282;16.436;99.370;2023-05-10T02:03:24;11.20;;;7.50;;
12601;SDS011;30282;16.436;99.370;2023-05-10T02:05:54;13.37;;;7.57;;
12601;SDS011;30282;16.436;99.370;2023-05-10T02:08:25;16.57;;;7.97;;
12601;SDS011;30282;16.436;99.370;2023-05-10T02:10:55;15.50;;;8.43;;
12601;SDS011;30282;16.436;99.370;2023-05-10T02:13:26;12.97;;;7.80;;
12601;SDS011;30282;16.436;99.370;2023-05-10T02:15:57;14.43;;;7.70;;
12601;SDS011;30282;16.436;99.370;2023-05-10T02:18:31;11.90;;;7.80;;
12601;SDS011;30282;16.436;99.370;2023-05-10T02:21:06;12.40;;;7.57;;
12601;SDS011;30282;16.436;99.370;2023-05-10T02:23:37;17.50;;;8.00;;
12601;SDS011;30282;16.436;99.370;2023-05-10T02:26:07;74.90;;;9.90;;
12601;SDS011;30282;16.436;99.370;2023-05-10T02:28:39;13.33;;;7.83;;
12601;SDS011;30282;16.436;99.370;2023-05-10T02:31:09;19.40;;;9.10;;
12601;SDS011;30282;16.436;99.370;2023-05-10T02:33:43;15.07;;;9.73;;
12601;SDS011;30282;16.436;99.370;2023-05-10T02:36:13;13.27;;;8.53;;
12601;SDS011;30282;16.436;99.370;2023-05-10T02:38:46;16.50;;;10.40;;
12601;SDS011;30282;16.436;99.370;2023-05-10T02:41:18;15.10;;;9.80;;
12601;SDS011;30282;16.436;99.370;2023-05-10T02:43:49;16.77;;;9.97;;
12601;SDS011;30282;16.436;99.370;2023-05-10T02:46:23;23.70;;;9.40;;
12601;SDS011;30282;16.436;99.370;2023-05-10T02:48:54;27.77;;;10.37;;
12601;SDS011;30282;16.436;99.370;2023-05-10T02:51:24;15.83;;;9.93;;
12601;SDS011;30282;16.436;99.370;2023-05-10T02:53:57;17.40;;;10.07;;
12601;SDS011;30282;16.436;99.370;2023-05-10T02:56:31;18.37;;;10.80;;
12601;SDS011;30282;16.436;99.370;2023-05-10T02:59:02;15.80;;;9.20;;
12601;SDS011;30282;16.436;99.370;2023-05-10T03:01:32;14.33;;;9.30;;
12601;SDS011;30282;16.436;99.370;2023-05-10T03:04:03;13.23;;;8.27;;
12601;SDS011;30282;16.436;99.370;2023-05-10T03:06:32;19.20;;;9.20;;
12601;SDS011;30282;16.436;99.370;2023-05-10T03:09:02;15.47;;;9.77;;
12601;SDS011;30282;16.436;99.370;2023-05-10T03:11:37;11.53;;;8.20;;
12601;SDS011;30282;16.436;99.370;2023-05-10T03:14:20;14.93;;;9.60;;
12601;SDS011;30282;16.436;99.370;2023-05-10T03:16:56;15.50;;;9.90;;
12601;SDS011;30282;16.436;99.370;2023-05-10T03:19:32;18.40;;;7.80;;
12601;SDS011;30282;16.436;99.370;2023-05-10T03:22:08;21.70;;;9.10;;
12601;SDS011;30282;16.436;99.370;2023-05-10T03:24:41;23.57;;;9.20;;
12601;SDS011;30282;16.436;99.370;2023-05-10T03:27:11;23.93;;;9.80;;
12601;SDS011;30282;16.436;99.370;2023-05-10T03:29:42;19.47;;;9.70;;
12601;SDS011;30282;16.436;99.370;2023-05-10T03:32:13;15.60;;;9.37;;
12601;SDS011;30282;16.436;99.370;2023-05-10T03:34:44;13.23;;;9.67;;
12601;SDS011;30282;16.436;99.370;2023-05-10T03:37:13;11.73;;;8.60;;
12601;SDS011;30282;16.436;99.370;2023-05-10T03:39:42;14.93;;;8.80;;
12601;SDS011;30282;16.436;99.370;2023-05-10T03:42:11;18.87;;;9.90;;
12601;SDS011;30282;16.436;99.370;2023-05-10T03:44:41;15.33;;;10.20;;
12601;SDS011;30282;16.436;99.370;2023-05-10T03:47:10;13.77;;;9.60;;
12601;SDS011;30282;16.436;99.370;2023-05-10T03:49:39;13.37;;;8.83;;
12601;SDS011;30282;16.436;99.370;2023-05-10T03:52:10;15.17;;;9.10;;
12601;SDS011;30282;16.436;99.370;2023-05-10T03:54:39;15.83;;;10.40;;
12601;SDS011;30282;16.436;99.370;2023-05-10T03:57:08;16.50;;;9.33;;
12601;SDS011;30282;16.436;99.370;2023-05-10T03:59:38;10.90;;;7.63;;
12601;SDS011;30282;16.436;99.370;2023-05-10T04:02:07;19.10;;;9.83;;
12601;SDS011;30282;16.436;99.370;2023-05-10T04:04:36;13.80;;;8.97;;
12601;SDS011;30282;16.436;99.370;2023-05-10T04:07:05;17.50;;;9.37;;
12601;SDS011;30282;16.436;99.370;2023-05-10T04:09:38;13.50;;;9.60;;
12601;SDS011;30282;16.436;99.370;2023-05-10T04:12:07;13.73;;;8.43;;
12601;SDS011;30282;16.436;99.370;2023-05-10T04:14:36;14.57;;;9.60;;
12601;SDS011;30282;16.436;99.370;2023-05-10T04:17:05;12.90;;;9.23;;
12601;SDS011;30282;16.436;99.370;2023-05-10T04:19:35;13.00;;;9.47;;
12601;SDS011;30282;16.436;99.370;2023-05-10T04:22:04;11.60;;;8.77;;
12601;SDS011;30282;16.436;99.370;2023-05-10T04:24:33;12.10;;;9.10;;
12601;SDS011;30282;16.436;99.370;2023-05-10T04:27:04;15.03;;;8.63;;
12601;SDS011;30282;16.436;99.370;2023-05-10T04:29:33;19.60;;;12.10;;
12601;SDS011;30282;16.436;99.370;2023-05-10T04:32:02;31.03;;;12.67;;
12601;SDS011;30282;16.436;99.370;2023-05-10T04:34:31;17.00;;;12.90;;
12601;SDS011;30282;16.436;99.370;2023-05-10T04:37:01;20.17;;;12.13;;
12601;SDS011;30282;16.436;99.370;2023-05-10T04:39:30;19.83;;;14.20;;
12601;SDS011;30282;16.436;99.370;2023-05-10T04:42:00;24.30;;;13.47;;
12601;SDS011;30282;16.436;99.370;2023-05-10T04:44:32;23.70;;;14.50;;
12601;SDS011;30282;16.436;99.370;2023-05-10T04:47:01;27.70;;;12.40;;
12601;SDS011;30282;16.436;99.370;2023-05-10T04:49:31;23.20;;;11.37;;
12601;SDS011;30282;16.436;99.370;2023-05-10T04:52:00;17.13;;;12.40;;
12601;SDS011;30282;16.436;99.370;2023-05-10T04:57:19;21.23;;;12.60;;
12601;SDS011;30282;16.436;99.370;2023-05-10T04:59:48;21.53;;;12.00;;
12601;SDS011;30282;16.436;99.370;2023-05-10T05:02:21;17.83;;;10.47;;
12601;SDS011;30282;16.436;99.370;2023-05-10T05:04:50;19.77;;;12.37;;
12601;SDS011;30282;16.436;99.370;2023-05-10T05:07:19;26.10;;;11.50;;
12601;SDS011;30282;16.436;99.370;2023-05-10T05:09:48;15.57;;;11.10;;
12601;SDS011;30282;16.436;99.370;2023-05-10T05:12:19;18.27;;;11.97;;
12601;SDS011;30282;16.436;99.370;2023-05-10T05:14:48;17.00;;;12.50;;
12601;SDS011;30282;16.436;99.370;2023-05-10T05:17:17;18.00;;;12.13;;
12601;SDS011;30282;16.436;99.370;2023-05-10T05:19:47;16.03;;;11.73;;
12601;SDS011;30282;16.436;99.370;2023-05-10T05:22:16;18.73;;;12.33;;
12601;SDS011;30282;16.436;99.370;2023-05-10T05:24:45;18.00;;;11.60;;
12601;SDS011;30282;16.436;99.370;2023-05-10T05:27:14;19.73;;;11.17;;
12601;SDS011;30282;16.436;99.370;2023-05-10T05:29:45;17.63;;;10.90;;
12601;SDS011;30282;16.436;99.370;2023-05-10T05:32:14;22.23;;;11.07;;
12601;SDS011;30282;16.436;99.370;2023-05-10T05:34:44;16.20;;;10.53;;
12601;SDS011;30282;16.436;99.370;2023-05-10T05:37:13;15.00;;;9.83;;
12601;SDS011;30282;16.436;99.370;2023-05-10T05:39:42;21.40;;;11.53;;
12601;SDS011;30282;16.436;99.370;2023-05-10T05:42:12;20.00;;;10.00;;
12601;SDS011;30282;16.436;99.370;2023-05-10T05:44:43;24.13;;;10.60;;
12601;SDS011;30282;16.436;99.370;2023-05-10T05:47:14;13.40;;;10.00;;
12601;SDS011;30282;16.436;99.370;2023-05-10T05:49:43;15.17;;;9.70;;
12601;SDS011;30282;16.436;99.370;2023-05-10T05:52:15;16.10;;;9.60;;
12601;SDS011;30282;16.436;99.370;2023-05-10T05:54:44;16.33;;;8.50;;
12601;SDS011;30282;16.436;99.370;2023-05-10T05:57:14;12.93;;;9.10;;
12601;SDS011;30282;16.436;99.370;2023-05-10T05:59:43;17.43;;;9.13;;
12601;SDS011;30282;16.436;99.370;2023-05-10T06:02:14;15.40;;;9.60;;
12601;SDS011;30282;16.436;99.370;2023-05-10T06:04:43;15.83;;;9.37;;
12601;SDS011;30282;16.436;99.370;2023-05-10T06:07:12;11.37;;;8.80;;
12601;SDS011;30282;16.436;99.370;2023-05-10T06:09:41;12.93;;;8.50;;
12601;SDS011;30282;16.436;99.370;2023-05-10T06:12:10;14.77;;;9.17;;
12601;SDS011;30282;16.436;99.370;2023-05-10T06:14:39;12.40;;;9.20;;
12601;SDS011;30282;16.436;99.370;2023-05-10T06:17:08;18.20;;;10.00;;
12601;SDS011;30282;16.436;99.370;2023-05-10T06:19:39;21.53;;;9.43;;
12601;SDS011;30282;16.436;99.370;2023-05-10T06:22:09;20.07;;;9.87;;
12601;SDS011;30282;16.436;99.370;2023-05-10T06:24:38;18.50;;;10.37;;
12601;SDS011;30282;16.436;99.370;2023-05-10T06:27:10;12.67;;;8.70;;
12601;SDS011;30282;16.436;99.370;2023-05-10T06:29:39;107.57;;;11.80;;
12601;SDS011;30282;16.436;99.370;2023-05-10T06:32:09;75.37;;;8.10;;
12601;SDS011;30282;16.436;99.370;2023-05-10T06:34:40;40.80;;;7.37;;
12601;SDS011;30282;16.436;99.370;2023-05-10T07:19:19;18.73;;;7.20;;
12601;SDS011;30282;16.436;99.370;2023-05-10T07:21:48;13.40;;;7.50;;
12601;SDS011;30282;16.436;99.370;2023-05-10T07:24:17;13.20;;;6.87;;
12601;SDS011;30282;16.436;99.370;2023-05-10T07:26:46;19.60;;;8.33;;
12601;SDS011;30282;16.436;99.370;2023-05-10T07:29:15;17.10;;;10.73;;
12601;SDS011;30282;16.436;99.370;2023-05-10T07:31:44;27.90;;;15.10;;
12601;SDS011;30282;16.436;99.370;2023-05-10T07:34:13;20.00;;;12.93;;
12601;SDS011;30282;16.436;99.370;2023-05-10T07:36:47;21.43;;;12.37;;
12601;SDS011;30282;16.436;99.370;2023-05-10T07:39:16;21.83;;;9.63;;
12601;SDS011;30282;16.436;99.370;2023-05-10T07:41:46;12.20;;;7.63;;
12601;SDS011;30282;16.436;99.370;2023-05-10T07:44:15;18.20;;;8.37;;
12601;SDS011;30282;16.436;99.370;2023-05-10T08:01:33;21.43;;;6.03;;
12601;SDS011;30282;16.436;99.370;2023-05-10T08:04:03;13.50;;;5.70;;
12601;SDS011;30282;16.436;99.370;2023-05-10T08:06:33;12.70;;;6.20;;
12601;SDS011;30282;16.436;99.370;2023-05-10T08:09:02;7.77;;;5.43;;
12601;SDS011;30282;16.436;99.370;2023-05-10T08:11:32;11.50;;;5.43;;
12601;SDS011;30282;16.436;99.370;2023-05-10T08:14:03;15.17;;;7.07;;
12601;SDS011;30282;16.436;99.370;2023-05-10T08:16:34;20.63;;;7.27;;
12601;SDS011;30282;16.436;99.370;2023-05-10T08:19:03;12.10;;;5.63;;
12601;SDS011;30282;16.436;99.370;2023-05-10T08:21:33;17.20;;;5.40;;
12601;SDS011;30282;16.436;99.370;2023-05-10T08:24:03;9.90;;;4.80;;
12601;SDS011;30282;16.436;99.370;2023-05-10T08:26:32;19.43;;;5.67;;
12601;SDS011;30282;16.436;99.370;2023-05-10T08:29:02;12.30;;;5.47;;
12601;SDS011;30282;16.436;99.370;2023-05-10T08:31:31;14.53;;;6.37;;
12601;SDS011;30282;16.436;99.370;2023-05-10T08:34:02;10.03;;;5.57;;
12601;SDS011;30282;16.436;99.370;2023-05-10T08:36:31;10.10;;;4.67;;
12601;SDS011;30282;16.436;99.370;2023-05-10T08:39:00;20.63;;;6.90;;
12601;SDS011;30282;16.436;99.370;2023-05-10T08:41:30;15.97;;;5.10;;
12601;SDS011;30282;16.436;99.370;2023-05-10T08:44:04;11.57;;;5.20;;
12601;SDS011;30282;16.436;99.370;2023-05-10T08:46:37;10.63;;;5.20;;
12601;SDS011;30282;16.436;99.370;2023-05-10T08:49:09;15.03;;;5.23;;
12601;SDS011;30282;16.436;99.370;2023-05-10T08:51:43;13.03;;;6.10;;
12601;SDS011;30282;16.436;99.370;2023-05-10T08:54:20;11.77;;;6.47;;
12601;SDS011;30282;16.436;99.370;2023-05-10T08:56:50;11.90;;;6.53;;
12601;SDS011;30282;16.436;99.370;2023-05-10T08:59:20;12.57;;;5.40;;
12601;SDS011;30282;16.436;99.370;2023-05-10T09:01:52;21.13;;;6.60;;
12601;SDS011;30282;16.436;99.370;2023-05-10T09:04:25;10.80;;;6.80;;
12601;SDS011;30282;16.436;99.370;2023-05-10T09:06:56;17.10;;;10.07;;
12601;SDS011;30282;16.436;99.370;2023-05-10T09:12:19;29.33;;;14.70;;
12601;SDS011;30282;16.436;99.370;2023-05-10T09:14:48;27.63;;;16.70;;
12601;SDS011;30282;16.436;99.370;2023-05-10T09:17:22;21.03;;;13.17;;
12601;SDS011;30282;16.436;99.370;2023-05-10T09:19:57;14.67;;;9.50;;
12601;SDS011;30282;16.436;99.370;2023-05-10T09:22:26;20.50;;;8.80;;
12601;SDS011;30282;16.436;99.370;2023-05-10T09:25:08;16.03;;;9.40;;
12601;SDS011;30282;16.436;99.370;2023-05-10T09:27:39;15.53;;;9.80;;
12601;SDS011;30282;16.436;99.370;2023-05-10T09:30:10;17.97;;;9.20;;
12601;SDS011;30282;16.436;99.370;2023-05-10T09:32:45;15.37;;;7.43;;
12601;SDS011;30282;16.436;99.370;2023-05-10T09:35:16;13.33;;;7.13;;
12601;SDS011;30282;16.436;99.370;2023-05-10T09:37:47;13.03;;;6.50;;
12601;SDS011;30282;16.436;99.370;2023-05-10T09:40:17;15.30;;;6.87;;
12601;SDS011;30282;16.436;99.370;2023-05-10T09:42:54;16.50;;;6.53;;
12601;SDS011;30282;16.436;99.370;2023-05-10T09:45:26;13.60;;;7.30;;
12601;SDS011;30282;16.436;99.370;2023-05-10T09:47:58;13.20;;;6.97;;
12601;SDS011;30282;16.436;99.370;2023-05-10T09:50:29;11.80;;;6.37;;
12601;SDS011;30282;16.436;99.370;2023-05-10T09:53:00;17.20;;;6.60;;
12601;SDS011;30282;16.436;99.370;2023-05-10T09:55:38;15.13;;;6.40;;
12601;SDS011;30282;16.436;99.370;2023-05-10T09:58:10;10.07;;;4.10;;
12601;SDS011;30282;16.436;99.370;2023-05-10T10:00:40;14.03;;;4.53;;
12601;SDS011;30282;16.436;99.370;2023-05-10T10:03:15;6.70;;;3.93;;
12601;SDS011;30282;16.436;99.370;2023-05-10T10:05:45;6.97;;;4.30;;
12601;SDS011;30282;16.436;99.370;2023-05-10T10:08:15;12.70;;;6.33;;
12601;SDS011;30282;16.436;99.370;2023-05-10T10:10:45;10.30;;;6.57;;
12601;SDS011;30282;16.436;99.370;2023-05-10T10:13:15;9.87;;;5.60;;
12601;SDS011;30282;16.436;99.370;2023-05-10T10:15:45;12.53;;;5.00;;
12601;SDS011;30282;16.436;99.370;2023-05-10T10:18:18;13.87;;;4.10;;
12601;SDS011;30282;16.436;99.370;2023-05-10T10:20:52;13.17;;;5.40;;
12601;SDS011;30282;16.436;99.370;2023-05-10T10:23:23;12.33;;;6.23;;
12601;SDS011;30282;16.436;99.370;2023-05-10T10:25:53;11.90;;;5.13;;
12601;SDS011;30282;16.436;99.370;2023-05-10T10:28:26;9.90;;;4.47;;
12601;SDS011;30282;16.436;99.370;2023-05-10T10:31:10;9.77;;;5.27;;
12601;SDS011;30282;16.436;99.370;2023-05-10T10:33:55;14.23;;;6.40;;
12601;SDS011;30282;16.436;99.370;2023-05-10T10:36:28;15.10;;;6.93;;
12601;SDS011;30282;16.436;99.370;2023-05-10T10:38:59;9.97;;;6.97;;
12601;SDS011;30282;16.436;99.370;2023-05-10T10:41:30;13.20;;;6.93;;
12601;SDS011;30282;16.436;99.370;2023-05-10T10:47:02;12.53;;;6.07;;
12601;SDS011;30282;16.436;99.370;2023-05-10T10:50:06;9.30;;;7.20;;
12601;SDS011;30282;16.436;99.370;2023-05-10T10:52:38;15.97;;;9.70;;
12601;SDS011;30282;16.436;99.370;2023-05-10T10:55:08;56.17;;;30.90;;
12601;SDS011;30282;16.436;99.370;2023-05-10T10:57:47;53.67;;;26.40;;
12601;SDS011;30282;16.436;99.370;2023-05-10T11:00:23;28.70;;;11.77;;
12601;SDS011;30282;16.436;99.370;2023-05-10T11:02:55;16.53;;;7.40;;
12601;SDS011;30282;16.436;99.370;2023-05-10T11:05:35;18.00;;;7.47;;
12601;SDS011;30282;16.436;99.370;2023-05-10T11:08:15;34.07;;;11.63;;
12601;SDS011;30282;16.436;99.370;2023-05-10T11:10:51;23.83;;;7.30;;
12601;SDS011;30282;16.436;99.370;2023-05-10T11:13:29;12.33;;;6.93;;
12601;SDS011;30282;16.436;99.370;2023-05-10T11:16:09;12.03;;;7.03;;
12601;SDS011;30282;16.436;99.370;2023-05-10T11:18:40;21.43;;;11.30;;
12601;SDS011;30282;16.436;99.370;2023-05-10T11:21:24;32.97;;;10.63;;
12601;SDS011;30282;16.436;99.370;2023-05-10T11:23:54;18.00;;;7.30;;
12601;SDS011;30282;16.436;99.370;2023-05-10T11:26:24;19.00;;;7.37;;
12601;SDS011;30282;16.436;99.370;2023-05-10T11:28:57;17.23;;;7.77;;
12601;SDS011;30282;16.436;99.370;2023-05-10T11:31:27;14.33;;;8.97;;
12601;SDS011;30282;16.436;99.370;2023-05-10T11:33:57;25.97;;;10.80;;
12601;SDS011;30282;16.436;99.370;2023-05-10T11:36:33;16.23;;;6.30;;
12601;SDS011;30282;16.436;99.370;2023-05-10T11:39:03;11.77;;;4.80;;
12601;SDS011;30282;16.436;99.370;2023-05-10T11:41:32;19.83;;;11.73;;
12601;SDS011;30282;16.436;99.370;2023-05-10T11:44:02;43.17;;;19.10;;
12601;SDS011;30282;16.436;99.370;2023-05-10T11:46:31;117.97;;;70.57;;
12601;SDS011;30282;16.436;99.370;2023-05-10T11:49:00;119.20;;;63.13;;
12601;SDS011;30282;16.436;99.370;2023-05-10T11:51:35;40.73;;;24.40;;
12601;SDS011;30282;16.436;99.370;2023-05-10T11:54:06;17.33;;;9.27;;
12601;SDS011;30282;16.436;99.370;2023-05-10T11:56:36;11.50;;;5.93;;
12601;SDS011;30282;16.436;99.370;2023-05-10T11:59:05;15.53;;;5.37;;
12601;SDS011;30282;16.436;99.370;2023-05-10T12:01:35;14.57;;;5.73;;
12601;SDS011;30282;16.436;99.370;2023-05-10T12:04:05;11.63;;;5.90;;
12601;SDS011;30282;16.436;99.370;2023-05-10T12:06:36;14.50;;;5.47;;
12601;SDS011;30282;16.436;99.370;2023-05-10T12:09:08;11.13;;;5.67;;
12601;SDS011;30282;16.436;99.370;2023-05-10T12:11:37;15.07;;;5.80;;
12601;SDS011;30282;16.436;99.370;2023-05-10T12:14:07;14.63;;;5.50;;
12601;SDS011;30282;16.436;99.370;2023-05-10T12:16:37;15.73;;;6.90;;
12601;SDS011;30282;16.436;99.370;2023-05-10T12:19:06;25.47;;;6.43;;
12601;SDS011;30282;16.436;99.370;2023-05-10T12:21:37;17.03;;;7.23;;
12601;SDS011;30282;16.436;99.370;2023-05-10T12:24:07;14.03;;;6.83;;
12601;SDS011;30282;16.436;99.370;2023-05-10T12:26:36;13.60;;;6.97;;
12601;SDS011;30282;16.436;99.370;2023-05-10T12:29:12;14.60;;;6.90;;
12601;SDS011;30282;16.436;99.370;2023-05-10T12:31:49;19.27;;;6.60;;
12601;SDS011;30282;16.436;99.370;2023-05-10T12:34:25;9.23;;;6.30;;
12601;SDS011;30282;16.436;99.370;2023-05-10T12:37:00;18.20;;;6.30;;
12601;SDS011;30282;16.436;99.370;2023-05-10T12:39:39;20.47;;;6.67;;
12601;SDS011;30282;16.436;99.370;2023-05-10T12:42:09;11.93;;;7.30;;
12601;SDS011;30282;16.436;99.370;2023-05-10T12:44:39;14.50;;;7.20;;
12601;SDS011;30282;16.436;99.370;2023-05-10T12:47:08;15.57;;;7.33;;
12601;SDS011;30282;16.436;99.370;2023-05-10T12:49:39;15.23;;;6.40;;
12601;SDS011;30282;16.436;99.370;2023-05-10T12:52:13;18.60;;;7.03;;
12601;SDS011;30282;16.436;99.370;2023-05-10T12:54:42;11.83;;;6.37;;
12601;SDS011;30282;16.436;99.370;2023-05-10T12:57:12;11.80;;;6.17;;
12601;SDS011;30282;16.436;99.370;2023-05-10T12:59:43;9.43;;;5.70;;
12601;SDS011;30282;16.436;99.370;2023-05-10T13:02:13;14.63;;;6.07;;
12601;SDS011;30282;16.436;99.370;2023-05-10T13:04:43;16.20;;;6.33;;
12601;SDS011;30282;16.436;99.370;2023-05-10T13:07:14;14.80;;;6.13;;
12601;SDS011;30282;16.436;99.370;2023-05-10T13:09:44;14.50;;;7.17;;
12601;SDS011;30282;16.436;99.370;2023-05-10T13:12:13;13.87;;;6.60;;
12601;SDS011;30282;16.436;99.370;2023-05-10T13:14:42;14.93;;;7.80;;
12601;SDS011;30282;16.436;99.370;2023-05-10T13:17:12;16.20;;;11.47;;
12601;SDS011;30282;16.436;99.370;2023-05-10T13:19:41;20.77;;;12.63;;
12601;SDS011;30282;16.436;99.370;2023-05-10T13:22:10;24.87;;;13.17;;
12601;SDS011;30282;16.436;99.370;2023-05-10T13:24:41;25.80;;;13.77;;
12601;SDS011;30282;16.436;99.370;2023-05-10T13:27:11;24.70;;;13.70;;
12601;SDS011;30282;16.436;99.370;2023-05-10T13:29:40;27.20;;;14.60;;
12601;SDS011;30282;16.436;99.370;2023-05-10T13:32:17;22.90;;;13.13;;
12601;SDS011;30282;16.436;99.370;2023-05-10T13:34:46;48.57;;;13.70;;
12601;SDS011;30282;16.436;99.370;2023-05-10T13:37:15;22.20;;;11.40;;
12601;SDS011;30282;16.436;99.370;2023-05-10T13:39:49;22.13;;;10.53;;
12601;SDS011;30282;16.436;99.370;2023-05-10T13:42:19;13.83;;;5.67;;
12601;SDS011;30282;16.436;99.370;2023-05-10T13:44:48;17.50;;;5.13;;
12601;SDS011;30282;16.436;99.370;2023-05-10T13:47:18;15.70;;;5.17;;
12601;SDS011;30282;16.436;99.370;2023-05-10T13:49:47;18.67;;;5.17;;
12601;SDS011;30282;16.436;99.370;2023-05-10T13:52:19;15.40;;;6.10;;
12601;SDS011;30282;16.436;99.370;2023-05-10T13:54:50;11.50;;;7.23;;
12601;SDS011;30282;16.436;99.370;2023-05-10T13:57:22;15.37;;;6.70;;
12601;SDS011;30282;16.436;99.370;2023-05-10T13:59:56;18.70;;;7.50;;
12601;SDS011;30282;16.436;99.370;2023-05-10T14:02:25;30.43;;;7.63;;
12601;SDS011;30282;16.436;99.370;2023-05-10T14:04:54;23.13;;;6.80;;
12601;SDS011;30282;16.436;99.370;2023-05-10T14:07:24;16.20;;;6.53;;
12601;SDS011;30282;16.436;99.370;2023-05-10T14:09:54;14.63;;;6.67;;
12601;SDS011;30282;16.436;99.370;2023-05-10T14:12:24;14.07;;;6.63;;
12601;SDS011;30282;16.436;99.370;2023-05-10T14:14:53;14.80;;;7.10;;
12601;SDS011;30282;16.436;99.370;2023-05-10T14:17:23;9.73;;;6.10;;
12601;SDS011;30282;16.436;99.370;2023-05-10T14:19:52;17.73;;;7.43;;
12601;SDS011;30282;16.436;99.370;2023-05-10T14:22:22;15.73;;;6.20;;
12601;SDS011;30282;16.436;99.370;2023-05-10T14:24:51;18.23;;;5.70;;
12601;SDS011;30282;16.436;99.370;2023-05-10T14:27:22;12.70;;;7.07;;
12601;SDS011;30282;16.436;99.370;2023-05-10T14:29:51;13.57;;;6.23;;
12601;SDS011;30282;16.436;99.370;2023-05-10T14:32:20;8.33;;;4.97;;
12601;SDS011;30282;16.436;99.370;2023-05-10T14:34:49;20.33;;;5.97;;
12601;SDS011;30282;16.436;99.370;2023-05-10T14:37:19;19.90;;;5.17;;
12601;SDS011;30282;16.436;99.370;2023-05-10T14:39:48;15.13;;;5.90;;
12601;SDS011;30282;16.436;99.370;2023-05-10T14:42:19;13.50;;;5.60;;
12601;SDS011;30282;16.436;99.370;2023-05-10T14:44:48;12.83;;;5.63;;
12601;SDS011;30282;16.436;99.370;2023-05-10T14:47:18;11.73;;;5.70;;
12601;SDS011;30282;16.436;99.370;2023-05-10T14:49:47;10.37;;;5.33;;
12601;SDS011;30282;16.436;99.370;2023-05-10T14:52:16;10.90;;;5.60;;
12601;SDS011;30282;16.436;99.370;2023-05-10T14:54:45;18.40;;;5.57;;
12601;SDS011;30282;16.436;99.370;2023-05-10T14:57:14;11.13;;;5.30;;
12601;SDS011;30282;16.436;99.370;2023-05-10T14:59:45;12.07;;;4.60;;
12601;SDS011;30282;16.436;99.370;2023-05-10T15:02:14;11.30;;;4.73;;
12601;SDS011;30282;16.436;99.370;2023-05-10T15:04:43;16.27;;;5.40;;
12601;SDS011;30282;16.436;99.370;2023-05-10T15:07:12;10.50;;;5.47;;
12601;SDS011;30282;16.436;99.370;2023-05-10T15:09:43;8.43;;;5.13;;
12601;SDS011;30282;16.436;99.370;2023-05-10T15:12:13;12.10;;;6.20;;
12601;SDS011;30282;16.436;99.370;2023-05-10T15:14:44;15.47;;;5.50;;
12601;SDS011;30282;16.436;99.370;2023-05-10T15:17:26;12.77;;;5.70;;
12601;SDS011;30282;16.436;99.370;2023-05-10T15:19:58;12.90;;;5.70;;
12601;SDS011;30282;16.436;99.370;2023-05-10T15:22:28;9.20;;;5.17;;
12601;SDS011;30282;16.436;99.370;2023-05-10T15:24:58;15.93;;;5.67;;
12601;SDS011;30282;16.436;99.370;2023-05-10T15:27:27;11.00;;;5.73;;
12601;SDS011;30282;16.436;99.370;2023-05-10T15:29:58;14.93;;;5.53;;
12601;SDS011;30282;16.436;99.370;2023-05-10T15:32:27;11.67;;;5.40;;
12601;SDS011;30282;16.436;99.370;2023-05-10T15:34:56;17.20;;;5.47;;
12601;SDS011;30282;16.436;99.370;2023-05-10T15:37:26;8.80;;;5.10;;
12601;SDS011;30282;16.436;99.370;2023-05-10T15:39:55;8.10;;;5.13;;
12601;SDS011;30282;16.436;99.370;2023-05-10T15:42:29;10.67;;;5.23;;
12601;SDS011;30282;16.436;99.370;2023-05-10T15:45:00;15.57;;;5.30;;
12601;SDS011;30282;16.436;99.370;2023-05-10T15:47:29;15.23;;;5.00;;
12601;SDS011;30282;16.436;99.370;2023-05-10T15:49:58;11.17;;;5.07;;